Terminal Aerodrome Forecast
Issued by NWS

Home | Current Version | Previous Version | Text Only | Print | Product List | Glossary On
Versions: 1 2 3 4 5 6 7 8 9 10 11 12 13 14 15 16 17 18 19 20 21 22 23 24 25 26 27 28 29 30 31 32 33 34 35 36 37 38 39
000
FTAK31 PANC 242331
TAFACD
TAF
PACD 242331Z 2500/2524 15024G32KT P6SM SCT020 BKN030
      TEMPO 2500/2503 5SM -RA BR BKN020
     FM250300 16018G28KT 5SM -RA BR BKN025
     FM250600 22035G45KT P6SM -SHRASN SCT030 BKN045
     FM251500 21025G35KT P6SM VCSH SCT045
     FM252200 19024G32KT P6SM VCSH OVC025=

USA.gov is the U.S. government's official web portal to all federal, state and local government web resources and services.